CheckWX is a tool to help pilots better visualize weather data.  It is not intended as a substitute for an official pre-flight weather briefing.

18:13:36 UTC

CYDF METAR
Deer Lake Airport
Deer Lake, Canada
Current

1 hour ago

CYDF 171700Z 26018G27KT 10SM -SN BKN027 M03/M08 A2953 RMK SC7 VIS LWR W SLP003
Observed
Feb-17 @ 17:00 UTC
Wind
  • 260° at 18 KTS
  • Gusting to 27 KTS
Visibility
10 SM
Flight Rules
MVFR
Conditions
Light Snow
Cloud Levels
  • Broken at 2,700' AGL
Temperature
-3°C / 27°F
Dewpoint
-8°C / 18°F
Humidity
69%
Altimeter
29.53" Hg
Pressure
1000.3 hPa
Previous

2 hours ago

CYDF 171600Z 25015G27KT 12SM -SN BKN033 M02/M07 A2953 RMK SC7 SLP004
Observed
Feb-17 @ 16:00 UTC
Wind
  • 250° at 15 KTS
  • Gusting to 27 KTS
Visibility
12 SM
Flight Rules
VFR
Conditions
Light Snow
Cloud Levels
  • Broken at 3,300' AGL
Temperature
-2°C / 28°F
Dewpoint
-7°C / 19°F
Humidity
69%
Altimeter
29.53" Hg
Pressure
1000.4 hPa
Previous

3 hours ago

CYDF 171500Z 25015G27KT 10SM -SN BKN026 M02/M06 A2954 RMK SC7 PRESRR SLP005
Observed
Feb-17 @ 15:00 UTC
Wind
  • 250° at 15 KTS
  • Gusting to 27 KTS
Visibility
10 SM
Flight Rules
MVFR
Conditions
Light Snow
Cloud Levels
  • Broken at 2,600' AGL
Temperature
-2°C / 28°F
Dewpoint
-6°C / 21°F
Humidity
74%
Altimeter
29.54" Hg
Pressure
1000.5 hPa